Time;durP1;ratioP1;P1;durP2;ratioP2;P2;SDS_P1;SDS_P2;PMS_P1;PMS_P2;Temp;Humidity;BMP_temperature;BMP_pressure;BME280_temperature;BME280_humidity;BME280_pressure;Samples;Min_cycle;Max_cycle;Signal;HPM_P1;HPM_P2
2022/03/08 00:01:12;;;;;;;25.57;15.80;;;-1.60;99.90;-2.70;101076;;;;549545;256;24215;-80
2022/03/08 00:03:40;;;;;;;25.10;15.13;;;-1.60;99.90;-2.70;101076;;;;549010;256;24154;-80
2022/03/08 00:06:08;;;;;;;25.07;13.87;;;-1.60;99.90;-2.70;101072;;;;551095;256;24144;-78
2022/03/08 00:08:36;;;;;;;26.37;15.47;;;-1.60;99.90;-2.70;101078;;;;551039;256;24174;-81
2022/03/08 00:11:04;;;;;;;24.80;13.77;;;-1.50;99.90;-2.70;101081;;;;551439;256;24142;-80
2022/03/08 00:13:32;;;;;;;25.77;14.63;;;-1.50;99.90;-2.70;101073;;;;559594;256;24182;-81
2022/03/08 00:16:00;;;;;;;25.83;13.73;;;-1.50;99.90;-2.60;101076;;;;551268;256;24169;-78
2022/03/08 00:18:29;;;;;;;23.90;13.40;;;-1.50;99.90;-2.60;101086;;;;548113;256;24132;-79
2022/03/08 00:20:57;;;;;;;23.23;12.93;;;-1.50;99.90;-2.60;101085;;;;550691;256;24139;-80
2022/03/08 00:23:25;;;;;;;26.30;14.03;;;-1.50;99.90;-2.60;101074;;;;550938;256;24161;-78
2022/03/08 00:25:54;;;;;;;27.23;14.93;;;-1.40;99.90;-2.60;101069;;;;558843;256;24240;-77
2022/03/08 00:28:22;;;;;;;29.70;13.77;;;-1.40;99.90;-2.50;101071;;;;550706;256;24152;-77
2022/03/08 00:30:51;;;;;;;24.77;12.73;;;-1.30;99.90;-2.50;101081;;;;550481;254;24176;-78
2022/03/08 00:33:20;;;;;;;24.00;13.27;;;-1.30;99.90;-2.40;101085;;;;550669;256;24165;-79
2022/03/08 00:35:52;;;;;;;21.83;12.40;;;-1.30;99.90;-2.40;101091;;;;550763;256;24190;-78
2022/03/08 00:38:19;;;;;;;21.90;12.53;;;-1.30;99.90;-2.40;101074;;;;547747;256;24174;-78
2022/03/08 00:40:44;;;;;;;22.73;12.37;;;-1.20;99.90;-2.30;101071;;;;550520;256;24155;-78
2022/03/08 00:43:12;;;;;;;23.30;13.00;;;-1.20;99.90;-2.30;101071;;;;548288;256;24147;-77
2022/03/08 00:45:40;;;;;;;22.63;11.83;;;-1.20;99.90;-2.30;101070;;;;550803;256;24160;-78
2022/03/08 00:48:08;;;;;;;23.83;12.70;;;-1.10;99.90;-2.20;101062;;;;548343;256;24132;-78
2022/03/08 00:50:38;;;;;;;23.98;9.18;;;-1.10;99.90;-2.20;101074;;;;545902;256;35715;-79
2022/03/08 00:53:04;;;;;;;10.23;4.63;;;-1.00;99.90;-2.10;101070;;;;558677;256;24201;-78
2022/03/08 00:55:32;;;;;;;18.50;7.30;;;-1.00;99.90;-2.10;101073;;;;538306;261;24215;-78
2022/03/08 00:58:03;;;;;;;19.07;10.23;;;-1.00;99.90;-2.10;101066;;;;544643;260;24235;-78
2022/03/08 01:00:28;;;;;;;20.47;11.27;;;-0.90;99.90;-2.10;101064;;;;548257;257;24186;-77
2022/03/08 01:02:56;;;;;;;20.27;11.63;;;-0.90;99.90;-2.10;101069;;;;551287;256;25235;-77
2022/03/08 01:05:23;;;;;;;19.70;10.17;;;-0.90;99.90;-2.00;101067;;;;549832;261;25253;-78
2022/03/08 01:07:51;;;;;;;23.07;11.60;;;-0.90;99.90;-2.00;101067;;;;548031;258;24091;-77
2022/03/08 01:10:20;;;;;;;19.33;10.97;;;-0.90;99.90;-2.00;101066;;;;541347;261;24219;-78
2022/03/08 01:12:53;;;;;;;18.73;10.07;;;-0.90;99.90;-2.00;101064;;;;547875;258;24056;-77
2022/03/08 01:15:21;;;;;;;18.70;10.27;;;-0.90;99.90;-2.00;101074;;;;550954;256;24146;-76
2022/03/08 01:17:48;;;;;;;17.70;9.93;;;-0.90;99.90;-2.00;101078;;;;550600;254;24140;-77
2022/03/08 01:20:16;;;;;;;16.53;9.47;;;-0.90;99.90;-2.00;101074;;;;551188;256;24147;-79
2022/03/08 01:22:44;;;;;;;13.83;8.70;;;-0.90;99.90;-2.00;101055;;;;551687;256;24190;-78
2022/03/08 01:25:08;;;;;;;17.40;9.27;;;-0.90;99.90;-2.10;101060;;;;551411;256;24137;-78
2022/03/08 01:27:40;;;;;;;15.70;8.90;;;-0.90;99.90;-2.10;101063;;;;551283;256;24172;-78
2022/03/08 01:30:07;;;;;;;15.73;8.27;;;-0.90;99.90;-2.10;101064;;;;559553;256;24153;-79
2022/03/08 01:32:35;;;;;;;14.83;8.67;;;-0.90;99.90;-2.10;101063;;;;552152;256;24134;-78
2022/03/08 01:35:03;;;;;;;14.60;8.20;;;-0.90;99.90;-2.10;101057;;;;548841;256;24136;-78
2022/03/08 01:37:31;;;;;;;15.77;8.67;;;-0.90;99.90;-2.10;101048;;;;551683;256;24174;-77
2022/03/08 01:40:02;;;;;;;9.57;7.30;;;-0.90;99.90;-2.10;101051;;;;555956;256;24195;-76
2022/03/08 01:42:27;;;;;;;17.00;8.20;;;-0.90;99.90;-2.10;101057;;;;559054;256;24139;-76
2022/03/08 01:44:56;;;;;;;15.70;8.13;;;-0.90;99.90;-2.00;101065;;;;559624;256;24132;-76
2022/03/08 01:47:24;;;;;;;17.53;7.63;;;-0.90;99.90;-2.00;101060;;;;559562;256;24139;-77
2022/03/08 01:49:52;;;;;;;15.60;8.07;;;-0.90;99.90;-2.00;101060;;;;550842;256;24163;-79
2022/03/08 01:52:20;;;;;;;14.67;7.97;;;-0.80;99.90;-1.90;101055;;;;556015;256;24181;-77
2022/03/08 01:54:51;;;;;;;18.10;8.63;;;-0.80;99.90;-1.90;101044;;;;550574;256;24147;-77
2022/03/08 01:57:19;;;;;;;19.10;9.50;;;-0.80;99.90;-1.90;101044;;;;558562;254;24216;-77
2022/03/08 01:59:48;;;;;;;18.87;9.00;;;-0.80;99.90;-1.90;101040;;;;554371;256;24332;-77
2022/03/08 02:02:12;;;;;;;20.47;9.73;;;-0.70;99.90;-1.90;101050;;;;559027;256;24281;-77
2022/03/08 02:04:40;;;;;;;18.10;7.37;;;-0.70;99.90;-1.80;101046;;;;543340;254;35777;-78
2022/03/08 02:07:12;;;;;;;11.40;4.93;;;-0.70;99.90;-1.80;101043;;;;559312;256;24168;-78
2022/03/08 02:09:39;;;;;;;11.53;5.23;;;-0.70;99.90;-1.80;101039;;;;551393;255;24163;-79
2022/03/08 02:12:07;;;;;;;8.73;5.33;;;-0.70;99.90;-1.80;101030;;;;552004;256;24369;-79
2022/03/08 02:14:32;;;;;;;19.90;9.87;;;-0.70;99.90;-1.80;101030;;;;551900;256;24171;-78
2022/03/08 02:17:00;;;;;;;21.33;10.90;;;-0.70;99.90;-1.80;101039;;;;559958;254;24141;-79
2022/03/08 02:19:28;;;;;;;20.07;10.23;;;-0.70;99.90;-1.90;101031;;;;551587;256;24153;-79
2022/03/08 02:21:56;;;;;;;21.97;10.70;;;-0.70;99.90;-1.90;101034;;;;551464;256;24145;-78
2022/03/08 02:24:24;;;;;;;18.17;9.33;;;-0.70;99.90;-1.90;101037;;;;551505;256;24186;-77
2022/03/08 02:26:51;;;;;;;14.03;8.93;;;-0.70;99.90;-1.80;101035;;;;559550;254;24176;-78
2022/03/08 02:29:19;;;;;;;19.00;10.00;;;-0.70;99.90;-1.90;101040;;;;551195;256;24187;-79
2022/03/08 02:31:47;;;;;;;22.37;9.53;;;-0.70;99.90;-1.90;101043;;;;548803;256;24149;-78
2022/03/08 02:34:19;;;;;;;19.93;9.30;;;-0.80;99.90;-1.90;101050;;;;559249;255;24144;-78
2022/03/08 02:36:58;;;;;;;15.77;9.47;;;-0.80;99.90;-1.90;101041;;;;558962;256;24206;-78
2022/03/08 02:39:29;;;;;;;15.90;7.82;;;-0.80;99.90;-2.00;101041;;;;554318;256;35671;-78
2022/03/08 02:41:55;;;;;;;7.87;4.73;;;-0.80;99.90;-2.00;101042;;;;558689;254;24148;-79
2022/03/08 02:44:24;;;;;;;10.10;4.03;;;-0.80;99.90;-2.00;101049;;;;559196;256;24168;-78
2022/03/08 02:46:54;;;;;;;7.70;4.57;;;-0.90;99.90;-2.00;101047;;;;558948;256;24139;-79
2022/03/08 02:49:19;;;;;;;11.47;7.07;;;-0.90;99.90;-2.10;101048;;;;554126;256;24155;-79
2022/03/08 02:51:47;;;;;;;11.10;6.83;;;-0.90;99.90;-2.20;101045;;;;558521;254;24158;-78
2022/03/08 02:54:15;;;;;;;13.30;7.90;;;-1.00;99.90;-2.20;101043;;;;550793;256;24172;-79
2022/03/08 02:56:43;;;;;;;12.70;7.73;;;-1.10;99.90;-2.20;101043;;;;559018;255;24166;-78
2022/03/08 02:59:11;;;;;;;14.17;7.67;;;-1.10;99.90;-2.30;101046;;;;558757;256;24236;-78
2022/03/08 03:01:39;;;;;;;13.40;8.00;;;-1.10;99.90;-2.30;101045;;;;558762;255;24230;-79
2022/03/08 03:04:07;;;;;;;10.53;6.47;;;-1.20;99.90;-2.40;101049;;;;558999;255;24146;-78
2022/03/08 03:06:35;;;;;;;12.77;7.37;;;-1.20;99.90;-2.40;101036;;;;559112;256;24185;-78
2022/03/08 03:09:05;;;;;;;16.17;8.83;;;-1.30;99.90;-2.40;101043;;;;559512;256;24170;-78
2022/03/08 03:11:30;;;;;;;11.63;7.70;;;-1.30;99.90;-2.40;101044;;;;551573;256;24147;-81
2022/03/08 03:13:58;;;;;;;10.80;6.80;;;-1.30;99.90;-2.50;101043;;;;559616;255;24167;-82
2022/03/08 03:16:30;;;;;;;13.23;7.43;;;-1.30;99.90;-2.50;101045;;;;559661;255;24143;-81
2022/03/08 03:18:54;;;;;;;13.13;7.30;;;-1.30;99.90;-2.50;101041;;;;551252;256;24193;-81
2022/03/08 03:21:22;;;;;;;10.43;6.67;;;-1.40;99.90;-2.60;101045;;;;559928;255;24176;-81
2022/03/08 03:23:50;;;;;;;15.53;8.70;;;-1.40;99.90;-2.60;101036;;;;560563;254;24249;-80
2022/03/08 03:26:18;;;;;;;11.77;7.30;;;-1.40;99.90;-2.60;101033;;;;560272;256;24202;-81
2022/03/08 03:28:46;;;;;;;13.20;7.60;;;-1.50;99.90;-2.70;101042;;;;560205;254;24189;-79
2022/03/08 03:31:15;;;;;;;11.47;7.40;;;-1.50;99.90;-2.70;101036;;;;559935;256;24165;-81
2022/03/08 03:33:43;;;;;;;13.43;7.67;;;-1.60;99.90;-2.80;101039;;;;560112;254;24152;-78
2022/03/08 03:36:10;;;;;;;12.83;7.97;;;-1.60;99.90;-2.80;101043;;;;559984;256;24146;-79
2022/03/08 03:38:38;;;;;;;11.93;7.10;;;-1.60;99.90;-2.80;101046;;;;559938;255;24142;-79
2022/03/08 03:41:06;;;;;;;10.27;6.73;;;-1.60;99.90;-2.80;101046;;;;559631;256;24163;-81
2022/03/08 03:43:34;;;;;;;12.10;7.07;;;-1.60;99.90;-2.90;101042;;;;559740;254;24174;-79
2022/03/08 03:46:07;;;;;;;10.73;6.93;;;-1.70;99.90;-2.90;101038;;;;559622;256;24156;-79
2022/03/08 03:48:31;;;;;;;13.43;7.63;;;-1.70;99.90;-2.90;101033;;;;551020;256;24167;-78
2022/03/08 03:50:59;;;;;;;15.70;8.43;;;-1.70;99.90;-2.90;101044;;;;550814;256;24225;-79
2022/03/08 03:53:27;;;;;;;14.00;7.33;;;-1.70;99.90;-2.90;101042;;;;559002;256;24197;-80
2022/03/08 03:55:55;;;;;;;11.40;7.20;;;-1.80;99.90;-2.90;101050;;;;558877;254;24214;-79
2022/03/08 03:58:23;;;;;;;11.93;7.30;;;-1.80;99.90;-3.00;101036;;;;558595;255;24145;-78
2022/03/08 04:00:51;;;;;;;11.63;6.00;;;-1.80;99.90;-3.00;101045;;;;553785;256;35769;-80
2022/03/08 04:03:19;;;;;;;7.83;3.27;;;-1.80;99.90;-3.00;101033;;;;558482;256;24267;-79
2022/03/08 04:05:47;;;;;;;10.03;5.37;;;-1.80;99.90;-3.00;101029;;;;550729;256;24159;-80
2022/03/08 04:08:17;;;;;;;12.63;7.20;;;-1.70;99.90;-2.90;101039;;;;559633;256;24201;-78
2022/03/08 04:10:43;;;;;;;13.63;7.77;;;-1.80;99.90;-2.90;101042;;;;559189;255;24152;-79
2022/03/08 04:13:10;;;;;;;12.37;6.53;;;-1.70;99.90;-2.90;101041;;;;559241;254;24136;-81
2022/03/08 04:15:38;;;;;;;13.70;7.50;;;-1.70;99.90;-2.90;101045;;;;559238;255;24189;-80
2022/03/08 04:18:06;;;;;;;12.30;6.70;;;-1.70;99.90;-2.90;101046;;;;559194;255;24154;-79
2022/03/08 04:20:34;;;;;;;11.77;6.93;;;-1.70;99.90;-2.90;101049;;;;559078;255;24190;-80
2022/03/08 04:23:06;;;;;;;9.63;6.37;;;-1.70;99.90;-2.90;101049;;;;555313;256;24206;-80
2022/03/08 04:25:30;;;;;;;11.20;6.50;;;-1.70;99.90;-2.90;101048;;;;558689;253;24189;-78
2022/03/08 04:28:01;;;;;;;11.50;6.23;;;-1.70;99.90;-2.80;101056;;;;558925;256;24224;-80
2022/03/08 04:30:26;;;;;;;9.87;6.47;;;-1.70;99.90;-2.80;101059;;;;550637;256;24155;-78
2022/03/08 04:32:54;;;;;;;13.50;7.87;;;-1.60;99.90;-2.80;101046;;;;559325;255;24164;-79
2022/03/08 04:35:22;;;;;;;12.63;8.17;;;-1.60;99.90;-2.80;101060;;;;559970;256;24206;-78
2022/03/08 04:37:51;;;;;;;11.27;7.43;;;-1.60;99.90;-2.80;101047;;;;559719;254;24185;-78
2022/03/08 04:40:20;;;;;;;9.07;7.13;;;-1.60;99.90;-2.80;101043;;;;550222;256;24185;-78
2022/03/08 04:42:48;;;;;;;10.50;7.93;;;-1.60;99.90;-2.80;101047;;;;559368;256;24169;-79
2022/03/08 04:45:19;;;;;;;18.73;11.38;;;-1.60;99.90;-2.70;101046;;;;554447;255;35718;-79
2022/03/08 04:47:48;;;;;;;16.90;7.10;;;-1.60;99.90;-2.80;101047;;;;558947;253;24210;-78
2022/03/08 04:50:14;;;;;;;18.93;13.20;;;-1.60;99.90;-2.80;101046;;;;548573;256;24245;-79
2022/03/08 04:52:46;;;;;;;14.70;10.07;;;-1.60;99.90;-2.70;101037;;;;546036;256;35743;-78
2022/03/08 04:55:16;;;;;;;8.73;5.17;;;-1.60;99.90;-2.70;101048;;;;550924;256;24159;-78
2022/03/08 04:57:45;;;;;;;8.97;5.07;;;-1.60;99.90;-2.80;101041;;;;550793;256;24148;-78
2022/03/08 05:00:14;;;;;;;12.30;7.67;;;-1.60;99.90;-2.70;101039;;;;558863;256;24191;-77
2022/03/08 05:02:42;;;;;;;11.10;7.43;;;-1.60;99.90;-2.80;101043;;;;550740;256;24150;-78
2022/03/08 05:05:08;;;;;;;15.93;9.00;;;-1.60;99.90;-2.80;101042;;;;550809;256;24187;-78
2022/03/08 05:07:42;;;;;;;14.10;9.30;;;-1.60;99.90;-2.80;101049;;;;559420;255;24208;-78
2022/03/08 05:10:06;;;;;;;17.30;9.83;;;-1.60;99.90;-2.80;101055;;;;551017;256;24192;-79
2022/03/08 05:12:34;;;;;;;12.27;9.13;;;-1.60;99.90;-2.80;101047;;;;551434;256;24182;-78
2022/03/08 05:15:02;;;;;;;12.27;9.33;;;-1.60;99.90;-2.80;101052;;;;551505;256;24167;-78
2022/03/08 05:17:30;;;;;;;13.27;8.83;;;-1.60;99.90;-2.80;101059;;;;559593;254;24166;-79
2022/03/08 05:19:58;;;;;;;12.87;8.80;;;-1.60;99.90;-2.80;101052;;;;559306;256;25193;-78
2022/03/08 05:22:26;;;;;;;16.90;9.57;;;-1.60;99.90;-2.80;101043;;;;559928;254;24147;-78
2022/03/08 05:24:54;;;;;;;13.00;9.43;;;-1.60;99.90;-2.80;101049;;;;559607;256;24299;-78
2022/03/08 05:27:24;;;;;;;12.60;8.47;;;-1.60;99.90;-2.80;101065;;;;559520;256;24229;-78
2022/03/08 05:29:50;;;;;;;12.63;8.73;;;-1.60;99.90;-2.80;101060;;;;558522;256;24169;-78
2022/03/08 05:32:17;;;;;;;12.43;8.50;;;-1.60;99.90;-2.80;101070;;;;558534;256;24193;-78
2022/03/08 05:34:45;;;;;;;14.33;9.17;;;-1.60;99.90;-2.80;101068;;;;558694;255;24150;-79
2022/03/08 05:37:13;;;;;;;14.83;9.60;;;-1.60;99.90;-2.70;101069;;;;558560;256;24191;-78
2022/03/08 05:39:42;;;;;;;14.47;9.27;;;-1.60;99.90;-2.70;101082;;;;559017;256;24178;-77
2022/03/08 05:42:11;;;;;;;15.47;8.63;;;-1.50;99.90;-2.70;101086;;;;558944;256;24213;-78
2022/03/08 05:44:39;;;;;;;13.77;8.63;;;-1.50;99.90;-2.60;101075;;;;559587;254;24161;-79
2022/03/08 05:47:09;;;;;;;12.17;8.43;;;-1.50;99.90;-2.60;101083;;;;560213;256;24172;-80
2022/03/08 05:49:34;;;;;;;13.97;8.30;;;-1.40;99.90;-2.50;101087;;;;551527;256;24181;-79
2022/03/08 05:52:05;;;;;;;11.77;8.67;;;-1.40;99.90;-2.50;101089;;;;551675;256;24175;-78
2022/03/08 05:54:30;;;;;;;12.07;8.00;;;-1.40;99.90;-2.40;101088;;;;551294;256;24166;-81
2022/03/08 05:56:58;;;;;;;14.40;9.07;;;-1.30;99.90;-2.40;101095;;;;559625;254;24186;-79
2022/03/08 05:59:26;;;;;;;11.53;8.90;;;-1.20;99.90;-2.30;101095;;;;559489;256;24198;-79
2022/03/08 06:01:54;;;;;;;13.77;9.23;;;-1.10;99.90;-2.20;101105;;;;559514;256;24175;-79
2022/03/08 06:04:23;;;;;;;14.57;9.37;;;-0.90;99.90;-2.10;101107;;;;559373;254;24143;-79
2022/03/08 06:06:54;;;;;;;15.23;9.67;;;-0.80;99.90;-2.00;101111;;;;559074;256;24173;-78
2022/03/08 06:09:20;;;;;;;17.53;9.27;;;-0.80;99.90;-1.90;101103;;;;559309;256;24130;-78
2022/03/08 06:11:48;;;;;;;15.97;8.80;;;-0.80;99.90;-1.80;101105;;;;559347;256;24175;-79
2022/03/08 06:14:16;;;;;;;16.43;9.20;;;-0.70;99.90;-1.70;101114;;;;559569;255;24156;-79
2022/03/08 06:16:44;;;;;;;9.00;4.90;;;-0.60;99.90;-1.60;101115;;;;559489;254;24123;-80
2022/03/08 06:19:12;;;;;;;10.37;6.00;;;-0.50;99.90;-1.40;101118;;;;559555;254;24132;-80
2022/03/08 06:21:39;;;;;;;9.97;5.87;;;-0.30;99.90;-1.30;101114;;;;559427;255;24152;-80
2022/03/08 06:24:07;;;;;;;11.17;5.33;;;-0.20;99.90;-1.10;101114;;;;559487;255;24143;-79
2022/03/08 06:26:35;;;;;;;10.63;5.93;;;-0.10;99.90;-1.00;101114;;;;559563;255;24136;-80
2022/03/08 06:29:07;;;;;;;10.87;5.53;;;0.10;99.90;-0.80;101116;;;;559313;255;24131;-80
2022/03/08 06:31:31;;;;;;;9.93;5.80;;;0.20;99.90;-0.50;101114;;;;556530;254;24196;-80
2022/03/08 06:34:00;;;;;;;8.80;6.20;;;0.90;99.90;0.10;101119;;;;559078;255;24177;-80
2022/03/08 06:36:28;;;;;;;12.30;6.90;;;0.90;99.90;0.30;101118;;;;559178;255;24138;-81
2022/03/08 06:38:56;;;;;;;17.13;6.97;;;1.20;99.90;0.90;101126;;;;558888;255;24153;-80
2022/03/08 06:41:26;;;;;;;10.57;7.10;;;1.70;99.90;2.70;101121;;;;558767;256;24206;-81
2022/03/08 06:43:51;;;;;;;16.40;8.43;;;3.10;99.90;5.40;101130;;;;558877;256;24165;-77
2022/03/08 06:46:19;;;;;;;17.63;8.90;;;5.40;99.90;7.20;101131;;;;559117;254;24263;-81
2022/03/08 06:48:47;;;;;;;11.47;8.17;;;7.30;99.90;8.60;101140;;;;550967;253;24191;-81
2022/03/08 06:51:15;;;;;;;14.80;6.00;;;8.80;99.90;9.80;101135;;;;551352;255;24171;-80
2022/03/08 06:53:43;;;;;;;8.40;5.90;;;10.30;99.90;10.30;101130;;;;559335;256;24145;-80
2022/03/08 06:56:12;;;;;;;9.53;6.33;;;12.00;99.90;11.50;101138;;;;559170;255;24205;-79
2022/03/08 06:58:40;;;;;;;9.33;6.50;;;13.70;99.90;13.20;101152;;;;559541;254;24166;-79
2022/03/08 07:01:09;;;;;;;9.20;6.73;;;15.20;99.90;14.60;101153;;;;559408;254;24170;-79
2022/03/08 07:03:41;;;;;;;7.70;6.17;;;15.10;99.90;16.10;101165;;;;550016;256;24242;-76
2022/03/08 07:06:05;;;;;;;10.87;6.60;;;16.60;99.90;17.30;101164;;;;558671;256;24213;-79
2022/03/08 07:08:36;;;;;;;8.53;5.80;;;17.80;99.90;18.10;101159;;;;558934;255;24187;-79
2022/03/08 07:11:01;;;;;;;6.10;5.47;;;18.70;99.90;18.80;101160;;;;550259;256;24144;-78
2022/03/08 07:13:29;;;;;;;9.40;6.30;;;19.40;91.20;19.80;101153;;;;559350;254;24143;-80
2022/03/08 07:15:57;;;;;;;7.53;6.17;;;20.20;74.90;20.40;101151;;;;559092;256;23159;-80
2022/03/08 07:18:24;;;;;;;7.30;6.10;;;21.00;67.00;21.10;101157;;;;559013;256;24186;-79
2022/03/08 07:20:52;;;;;;;9.57;7.18;;;21.80;62.60;22.10;101159;;;;554259;256;46593;-81
2022/03/08 07:23:20;;;;;;;7.47;6.03;;;22.60;57.80;22.60;101159;;;;559095;255;24167;-80
2022/03/08 07:25:52;;;;;;;7.70;5.80;;;23.80;54.10;23.20;101162;;;;559015;255;23212;-78
2022/03/08 07:28:18;;;;;;;8.30;6.30;;;24.40;51.50;23.90;101170;;;;558734;253;24147;-79
2022/03/08 07:30:46;;;;;;;6.33;5.73;;;24.30;51.50;24.40;101178;;;;555164;256;23161;-80
2022/03/08 07:33:14;;;;;;;10.00;8.77;;;25.10;49.60;24.30;101180;;;;558854;256;24169;-78
2022/03/08 07:35:41;;;;;;;11.07;8.43;;;25.20;48.50;24.40;101176;;;;558854;256;23197;-78
2022/03/08 07:38:09;;;;;;;8.50;7.70;;;25.20;48.40;24.90;101185;;;;558889;256;23196;-79
2022/03/08 07:40:37;;;;;;;8.63;7.77;;;25.70;48.10;25.50;101184;;;;558892;256;24157;-79
2022/03/08 07:43:05;;;;;;;10.70;8.47;;;26.10;46.70;26.10;101187;;;;558934;255;23151;-79
2022/03/08 07:45:35;;;;;;;7.70;6.97;;;26.70;45.70;26.70;101184;;;;558820;256;23214;-79
2022/03/08 07:48:05;;;;;;;9.03;8.07;;;27.40;44.70;27.40;101180;;;;558690;254;23203;-80
2022/03/08 07:50:29;;;;;;;8.60;6.35;;;28.00;43.20;27.80;101183;;;;549911;256;23160;-78
2022/03/08 07:52:59;;;;;;;8.57;6.10;;;28.80;40.40;28.10;101191;;;;558406;256;23149;-78
2022/03/08 07:55:25;;;;;;;9.27;7.12;;;28.70;40.30;28.30;101192;;;;558487;254;23182;-79
2022/03/08 07:57:55;;;;;;;10.82;8.57;;;29.00;40.50;28.60;101193;;;;550436;256;24231;-81
2022/03/08 08:00:23;;;;;;;9.70;8.30;;;29.30;39.80;28.70;101198;;;;558799;255;23156;-79
2022/03/08 08:02:51;;;;;;;15.93;14.23;;;29.50;39.00;29.10;101199;;;;558261;256;23184;-78
2022/03/08 08:05:19;;;;;;;11.70;10.05;;;29.80;38.30;29.00;101206;;;;550207;256;23157;-77
2022/03/08 08:07:49;;;;;;;8.50;6.80;;;29.70;37.80;29.00;101208;;;;550821;256;23157;-78
2022/03/08 08:10:14;;;;;;;9.93;6.55;;;29.70;37.50;29.30;101207;;;;551718;256;24215;-78
2022/03/08 08:12:42;;;;;;;9.82;6.95;;;30.00;37.20;29.40;101225;;;;559595;254;23144;-77
2022/03/08 08:15:11;;;;;;;9.68;6.50;;;30.50;36.50;29.90;101226;;;;559601;254;24221;-79
2022/03/08 08:17:40;;;;;;;7.30;6.00;;;30.50;36.30;29.70;101215;;;;559632;256;23231;-80
2022/03/08 08:20:08;;;;;;;7.60;6.32;;;30.50;36.30;29.90;101218;;;;559583;254;23212;-79
2022/03/08 08:22:37;;;;;;;7.57;6.00;;;30.70;36.30;30.30;101216;;;;559456;256;23153;-81
2022/03/08 08:25:06;;;;;;;7.45;6.62;;;31.50;35.40;30.70;101218;;;;559457;254;23173;-82
2022/03/08 08:27:34;;;;;;;7.25;6.53;;;31.50;35.30;31.20;101221;;;;550878;256;23167;-79
2022/03/08 08:30:02;;;;;;;5.82;4.93;;;32.00;34.70;31.30;101231;;;;558935;256;23211;-78
2022/03/08 08:32:29;;;;;;;5.37;4.45;;;32.20;33.80;30.00;101225;;;;558970;256;23164;-78
2022/03/08 08:34:57;;;;;;;6.87;5.10;;;31.60;33.70;28.80;101222;;;;559037;254;23145;-77
2022/03/08 08:37:26;;;;;;;9.23;8.32;;;30.10;34.70;28.90;101211;;;;558977;255;24153;-78
2022/03/08 08:39:55;;;;;;;7.00;6.12;;;30.60;34.10;29.80;101212;;;;554135;254;35736;-77
2022/03/08 08:42:26;;;;;;;5.78;4.90;;;30.90;34.40;30.20;101210;;;;550807;256;23165;-78
2022/03/08 08:44:51;;;;;;;5.97;5.25;;;30.90;33.70;30.70;101210;;;;555663;256;23184;-79
2022/03/08 08:47:19;;;;;;;6.28;4.90;;;31.40;33.40;30.70;101213;;;;558815;256;23219;-80
2022/03/08 08:49:47;;;;;;;6.28;5.12;;;31.60;33.30;30.90;101208;;;;558734;253;23223;-81
2022/03/08 08:52:15;;;;;;;6.62;5.28;;;31.90;32.80;31.30;101207;;;;558611;256;23224;-81
2022/03/08 08:54:46;;;;;;;5.00;4.50;;;32.30;32.60;31.90;101209;;;;558555;255;23200;-81
2022/03/08 08:57:11;;;;;;;4.55;4.00;;;32.80;32.20;32.10;101196;;;;558280;255;24215;-78
2022/03/08 08:59:39;;;;;;;4.78;4.28;;;33.10;31.60;32.20;101196;;;;558503;255;23160;-79
2022/03/08 09:02:07;;;;;;;5.65;5.15;;;33.40;31.20;32.30;101200;;;;558471;254;24183;-81
2022/03/08 09:04:35;;;;;;;26.90;21.02;;;33.60;31.30;32.40;101190;;;;550151;256;23153;-79
2022/03/08 09:07:04;;;;;;;10.05;8.25;;;33.70;31.10;32.40;101199;;;;550453;254;23185;-80
2022/03/08 09:09:32;;;;;;;5.70;5.20;;;33.70;31.00;32.40;101190;;;;558402;256;24159;-80
2022/03/08 09:12:01;;;;;;;5.35;4.80;;;34.20;30.30;32.90;101186;;;;554006;255;35695;-82
2022/03/08 09:14:29;;;;;;;4.68;3.80;;;34.10;30.50;32.70;101176;;;;558825;256;24182;-81
2022/03/08 09:16:58;;;;;;;4.60;4.20;;;34.30;30.20;32.80;101173;;;;558815;255;23148;-81
2022/03/08 09:19:27;;;;;;;12.20;6.18;;;34.50;30.10;33.00;101171;;;;559823;255;23183;-80
2022/03/08 09:21:55;;;;;;;6.28;5.22;;;34.50;30.10;33.00;101164;;;;552308;256;23145;-81
2022/03/08 09:24:23;;;;;;;5.62;4.15;;;34.60;30.10;33.30;101159;;;;560134;254;23216;-79
2022/03/08 09:26:50;;;;;;;7.22;4.80;;;34.70;29.60;33.10;101157;;;;559897;256;24181;-80
2022/03/08 09:29:18;;;;;;;4.47;3.97;;;34.80;29.90;33.00;101157;;;;559548;254;23157;-80
2022/03/08 09:31:46;;;;;;;3.80;3.50;;;34.60;29.80;32.50;101156;;;;559468;254;23168;-80
2022/03/08 09:34:14;;;;;;;3.80;3.47;;;34.10;29.70;31.40;101145;;;;559384;254;23204;-79
2022/03/08 09:36:42;;;;;;;7.95;2.83;;;33.10;30.00;30.90;101153;;;;551223;256;23152;-78
2022/03/08 09:39:11;;;;;;;10.40;3.75;;;31.50;30.70;29.40;101142;;;;559066;255;23159;-79
2022/03/08 09:41:42;;;;;;;4.53;4.00;;;30.00;32.10;27.70;101147;;;;559129;256;23142;-79
2022/03/08 09:44:14;;;;;;;3.62;3.33;;;28.40;33.40;26.10;101144;;;;550732;256;24206;-78
2022/03/08 09:46:42;;;;;;;5.03;3.87;;;28.30;33.20;25.10;101130;;;;559047;256;23222;-78
2022/03/08 09:49:11;;;;;;;5.37;3.10;;;26.10;35.40;24.20;101137;;;;548558;256;23177;-77
2022/03/08 09:51:38;;;;;;;6.40;3.00;;;25.90;35.30;23.40;101132;;;;559135;256;24257;-76
2022/03/08 09:54:06;;;;;;;9.10;3.50;;;25.10;36.20;22.90;101144;;;;558693;256;23215;-78
2022/03/08 09:56:35;;;;;;;5.70;2.73;;;24.50;37.20;22.30;101138;;;;558439;256;24244;-79
2022/03/08 09:59:02;;;;;;;6.67;2.63;;;24.00;37.90;22.30;101142;;;;549968;254;24139;-78
2022/03/08 10:01:30;;;;;;;2.10;1.90;;;23.90;38.20;23.10;101136;;;;554665;256;24161;-80
2022/03/08 10:03:58;;;;;;;3.50;1.80;;;24.50;37.70;23.40;101133;;;;558869;256;24144;-80
2022/03/08 10:06:26;;;;;;;1.63;1.50;;;25.00;37.10;23.80;101135;;;;558874;255;24148;-79
2022/03/08 10:08:55;;;;;;;2.53;2.33;;;25.80;36.30;24.00;101143;;;;550443;256;24165;-77
2022/03/08 10:11:23;;;;;;;2.63;2.07;;;26.00;36.00;24.10;101146;;;;550544;256;23165;-77
2022/03/08 10:13:53;;;;;;;4.37;2.07;;;26.00;35.90;24.00;101145;;;;558907;256;23173;-79
2022/03/08 10:16:28;;;;;;;2.70;1.90;;;26.00;36.00;23.80;101151;;;;558755;254;24144;-79
2022/03/08 10:18:49;;;;;;;2.43;1.77;;;25.90;35.80;23.90;101148;;;;558301;256;24178;-78
2022/03/08 10:21:35;;;;;;;1.93;1.67;;;25.90;35.90;23.90;101148;;;;550976;256;23173;-80
2022/03/08 10:24:08;;;;;;;2.40;1.53;;;26.00;35.70;24.00;101150;;;;550838;256;23198;-78
2022/03/08 10:26:34;;;;;;;1.60;1.50;;;26.10;35.70;23.80;101154;;;;550774;256;23205;-77
2022/03/08 10:29:02;;;;;;;3.03;2.50;;;26.00;36.40;23.20;101141;;;;550331;256;24163;-77
2022/03/08 10:31:30;;;;;;;3.20;2.30;;;25.40;36.60;22.70;101148;;;;551471;256;23160;-82
2022/03/08 10:34:04;;;;;;;3.43;2.07;;;24.90;36.40;22.10;101146;;;;551811;256;23211;-80
2022/03/08 10:36:34;;;;;;;2.03;1.80;;;24.30;37.10;21.70;101146;;;;551572;256;24157;-78
2022/03/08 10:39:11;;;;;;;2.77;2.07;;;23.80;37.70;21.40;101147;;;;559622;256;24161;-78
2022/03/08 10:41:48;;;;;;;4.13;1.97;;;23.30;38.40;20.60;101152;;;;559502;256;24218;-77
2022/03/08 10:44:31;;;;;;;5.43;2.57;;;22.70;39.20;19.70;101149;;;;558627;256;24202;-79
2022/03/08 10:47:05;;;;;;;2.33;2.00;;;21.90;40.60;18.90;101144;;;;559146;256;24136;-78
2022/03/08 10:49:29;;;;;;;2.30;1.93;;;21.00;41.80;18.30;101145;;;;550411;256;24172;-78
2022/03/08 10:52:00;;;;;;;3.17;2.17;;;20.20;42.60;17.70;101144;;;;558679;256;24154;-77
2022/03/08 10:54:32;;;;;;;6.80;3.60;;;19.60;43.90;17.00;101148;;;;550568;256;24171;-78
2022/03/08 10:56:56;;;;;;;3.20;2.20;;;18.80;44.90;16.30;101132;;;;550359;256;24194;-78
2022/03/08 10:59:24;;;;;;;3.60;2.03;;;18.00;46.10;15.30;101131;;;;547884;256;24147;-77
2022/03/08 11:01:52;;;;;;;1.80;1.53;;;17.00;47.90;14.30;101132;;;;558614;255;24244;-78
2022/03/08 11:04:26;;;;;;;1.83;1.67;;;15.90;49.40;13.50;101124;;;;558733;256;24254;-77
2022/03/08 11:06:52;;;;;;;3.10;1.67;;;14.80;51.20;12.90;101118;;;;550143;254;24249;-77
2022/03/08 11:09:22;;;;;;;3.97;1.90;;;14.00;52.90;12.50;101115;;;;547858;256;24193;-80